createdAt,value
2018-09-20T15:50:43.127Z,264.38
2018-09-20T15:52:26.203Z,281.25
2018-09-20T15:53:26.223Z,275.62
2018-09-20T15:54:26.188Z,270.00
2018-09-20T15:55:26.173Z,264.38
2018-09-20T15:56:26.162Z,258.75
2018-09-20T15:57:26.147Z,258.75
2018-09-20T15:58:26.133Z,253.12
2018-09-20T15:59:26.161Z,253.12
2018-09-20T16:00:26.123Z,253.12
2018-09-20T16:01:26.097Z,253.12
2018-09-20T16:02:26.096Z,253.12
2018-09-20T16:03:26.075Z,253.12
2018-09-20T16:04:26.066Z,241.88
2018-09-20T16:05:26.075Z,253.12
2018-09-20T16:06:26.050Z,247.50
2018-09-20T16:07:26.030Z,247.50
2018-09-20T16:08:26.018Z,247.50
2018-09-20T16:09:26.015Z,241.88
2018-09-20T16:10:26.032Z,213.75
2018-09-20T16:11:25.993Z,241.88
2018-09-20T16:12:25.983Z,230.62
2018-09-20T16:13:25.962Z,225.00
2018-09-20T16:14:26.076Z,225.00
2018-09-20T16:15:25.946Z,219.38
2018-09-20T16:16:25.956Z,219.38
2018-09-20T16:17:25.919Z,213.75
2018-09-20T16:18:25.905Z,208.12
2018-09-20T16:19:25.903Z,202.50
2018-09-20T16:20:25.883Z,196.88
2018-09-20T16:21:25.910Z,196.88
2018-09-20T16:22:25.865Z,191.25
2018-09-20T16:23:25.901Z,185.62
2018-09-20T16:24:25.846Z,180.00
2018-09-20T16:25:25.832Z,180.00
2018-09-20T16:26:25.816Z,180.00
2018-09-20T16:27:25.831Z,174.38
2018-09-20T16:28:25.795Z,174.38
2018-09-20T16:29:25.781Z,168.75
2018-09-20T16:30:25.777Z,168.75
2018-09-20T16:31:25.763Z,163.12
2018-09-20T16:32:25.781Z,163.12
2018-09-20T16:33:25.735Z,157.50
2018-09-20T16:34:25.731Z,151.88
2018-09-20T16:35:25.711Z,151.88
2018-09-20T16:36:25.702Z,146.25
2018-09-20T16:37:25.693Z,146.25
2018-09-20T16:38:25.772Z,146.25
2018-09-20T16:39:25.671Z,140.62
2018-09-20T16:40:25.659Z,140.62
2018-09-20T16:41:25.650Z,140.62
2018-09-20T16:42:25.629Z,135.00
2018-09-20T16:43:25.657Z,135.00
2018-09-20T16:44:25.616Z,129.38
2018-09-20T16:45:25.595Z,129.38
2018-09-20T16:46:25.592Z,129.38
2018-09-20T16:47:25.573Z,123.75
2018-09-20T16:48:25.561Z,123.75
2018-09-20T16:49:25.578Z,123.75
2018-09-20T16:50:25.535Z,118.12
2018-09-20T16:51:25.532Z,118.12
2018-09-20T16:52:25.519Z,112.50
2018-09-20T16:53:25.571Z,112.50
2018-09-20T16:54:25.523Z,112.50
2018-09-20T16:55:25.479Z,106.88
2018-09-20T16:56:25.469Z,106.88
2018-09-20T16:57:25.459Z,101.25
2018-09-20T16:58:25.445Z,101.25
2018-09-20T16:59:25.436Z,95.62
2018-09-20T17:00:25.455Z,95.62
2018-09-20T17:01:25.410Z,90.00
2018-09-20T17:02:25.403Z,90.00
2018-09-20T17:03:25.388Z,84.38
2018-09-20T17:04:25.376Z,84.38
2018-09-20T17:05:25.370Z,84.38
2018-09-20T17:06:25.375Z,78.75
2018-09-20T17:07:25.344Z,78.75
2018-09-20T17:08:25.340Z,78.75
2018-09-20T17:09:25.315Z,73.12
2018-09-20T17:10:25.313Z,73.12
2018-09-20T17:11:25.320Z,67.50
2018-09-20T17:12:25.279Z,67.50
2018-09-20T17:13:25.278Z,61.88
2018-09-20T17:14:25.291Z,61.88
2018-09-20T17:15:25.252Z,56.25
2018-09-20T17:16:25.289Z,50.62
2018-09-20T17:17:25.257Z,50.62
2018-09-20T17:18:25.219Z,45.00
2018-09-20T17:19:25.200Z,39.38
2018-09-20T17:20:25.193Z,39.38
2018-09-20T17:21:25.179Z,33.75
2018-09-20T17:22:25.164Z,33.75
2018-09-20T17:23:25.184Z,28.12
2018-09-20T17:24:25.149Z,28.12
2018-09-20T17:25:25.196Z,22.50
2018-09-20T17:26:25.123Z,22.50
2018-09-20T17:27:25.116Z,22.50
2018-09-20T17:28:25.123Z,16.88
2018-09-20T17:29:25.085Z,16.88
2018-09-20T17:30:25.084Z,16.88
2018-09-20T17:31:25.068Z,11.25
2018-09-20T17:32:25.059Z,11.25
2018-09-20T17:33:25.074Z,11.25
2018-09-20T17:34:25.035Z,11.25
2018-09-20T17:35:25.029Z,11.25
2018-09-20T17:36:25.014Z,5.62
2018-09-20T17:37:25.003Z,5.62
2018-09-20T17:38:24.994Z,5.62
2018-09-20T17:39:25.004Z,5.62
2018-09-20T17:40:24.966Z,5.62
2018-09-20T17:41:24.959Z,5.62
2018-09-20T17:42:24.948Z,0.00
2018-09-20T17:43:24.934Z,0.00
2018-09-20T17:44:24.923Z,0.00
2018-09-20T17:45:24.945Z,0.00
2018-09-20T17:46:24.894Z,0.00
2018-09-20T17:47:24.940Z,0.00
2018-09-20T17:48:24.875Z,0.00
2018-09-20T17:49:24.867Z,0.00
2018-09-20T17:50:24.858Z,0.00
2018-09-20T17:51:24.859Z,0.00
2018-09-20T17:52:24.827Z,0.00
2018-09-20T17:53:24.826Z,0.00
2018-09-20T17:54:24.811Z,0.00
2018-09-20T17:55:24.802Z,0.00
2018-09-20T17:56:24.811Z,0.00
2018-09-20T17:57:24.781Z,0.00
2018-09-20T17:58:24.763Z,0.00
2018-09-20T17:59:24.749Z,0.00
2018-09-20T18:00:24.743Z,0.00
2018-09-20T18:01:24.722Z,0.00
2018-09-20T18:02:24.738Z,0.00
2018-09-20T18:03:24.707Z,0.00
2018-09-20T18:04:24.688Z,0.00
2018-09-20T18:05:24.685Z,0.00
2018-09-20T18:06:24.670Z,0.00
2018-09-20T18:07:24.684Z,0.00
2018-09-20T18:08:24.643Z,0.00
2018-09-20T18:09:24.643Z,0.00
2018-09-20T18:10:24.630Z,0.00
2018-09-20T18:11:24.624Z,0.00
2018-09-20T18:12:24.604Z,0.00
2018-09-20T18:13:24.623Z,0.00
2018-09-20T18:14:24.585Z,0.00
2018-09-20T18:15:24.578Z,0.00
2018-09-20T18:16:24.564Z,0.00
2018-09-20T18:17:24.550Z,0.00
2018-09-20T18:18:24.630Z,0.00
2018-09-20T18:19:24.523Z,0.00
2018-09-20T18:20:24.521Z,0.00
2018-09-20T18:21:24.502Z,0.00
2018-09-20T18:22:24.496Z,0.00
2018-09-20T18:23:24.507Z,0.00
2018-09-20T18:24:24.472Z,0.00
2018-09-20T18:25:24.455Z,0.00
2018-09-20T18:26:24.443Z,0.00
2018-09-20T18:27:24.437Z,0.00
2018-09-20T18:28:24.425Z,0.00
2018-09-20T18:29:24.440Z,0.00
2018-09-20T18:30:24.390Z,0.00
2018-09-20T18:31:24.377Z,0.00
2018-09-20T18:32:24.365Z,0.00
2018-09-20T18:33:24.351Z,0.00
2018-09-20T18:34:24.448Z,0.00
2018-09-20T18:35:24.360Z,0.00
2018-09-20T18:36:24.316Z,0.00
2018-09-20T18:37:24.314Z,0.00
2018-09-20T18:38:24.293Z,0.00
2018-09-20T18:39:24.292Z,0.00
2018-09-20T18:40:24.284Z,0.00
2018-09-20T18:41:24.291Z,0.00
2018-09-20T18:42:24.266Z,0.00
2018-09-20T18:43:24.235Z,0.00
2018-09-20T18:44:24.234Z,0.00
2018-09-20T18:45:24.210Z,0.00
2018-09-20T18:46:24.203Z,0.00
2018-09-20T18:47:24.219Z,0.00
2018-09-20T18:48:24.224Z,0.00
2018-09-20T18:49:24.167Z,0.00
2018-09-20T18:50:24.159Z,0.00
2018-09-20T18:51:24.143Z,0.00
2018-09-20T18:52:24.135Z,0.00
2018-09-20T18:53:24.143Z,0.00
2018-09-20T18:54:24.106Z,0.00
2018-09-20T18:55:24.130Z,0.00
2018-09-20T18:56:24.092Z,0.00
2018-09-20T18:57:24.071Z,0.00
2018-09-20T18:58:24.092Z,0.00
2018-09-20T18:59:24.055Z,0.00
2018-09-20T19:00:24.040Z,0.00
2018-09-20T19:01:24.025Z,0.00
2018-09-20T19:02:24.023Z,0.00
2018-09-20T19:03:24.008Z,0.00
2018-09-20T19:04:24.012Z,0.00
2018-09-20T19:05:23.989Z,0.00
2018-09-20T19:06:23.969Z,0.00
2018-09-20T19:07:23.982Z,0.00
2018-09-20T19:08:23.953Z,0.00
2018-09-20T19:09:23.961Z,0.00
2018-09-20T19:10:23.931Z,0.00
2018-09-20T19:11:23.910Z,0.00
2018-09-20T19:12:23.905Z,0.00
2018-09-20T19:13:23.892Z,0.00
2018-09-20T19:14:23.882Z,0.00
2018-09-20T19:15:23.889Z,0.00
2018-09-20T19:16:23.856Z,0.00
2018-09-20T19:17:23.842Z,0.00
2018-09-20T19:18:23.831Z,0.00
2018-09-20T19:19:23.827Z,0.00
2018-09-20T19:20:23.839Z,0.00
2018-09-20T19:21:23.869Z,0.00
2018-09-20T19:22:23.787Z,0.00
2018-09-20T19:23:23.771Z,0.00
2018-09-20T19:24:23.762Z,0.00
2018-09-20T19:25:23.758Z,0.00
2018-09-20T19:26:23.776Z,0.00
2018-09-20T19:27:23.734Z,0.00
2018-09-20T19:28:23.719Z,0.00
2018-09-20T19:29:23.712Z,0.00
2018-09-20T19:30:23.695Z,0.00
2018-09-20T19:31:23.687Z,0.00
2018-09-20T19:32:23.703Z,0.00
2018-09-20T19:33:23.664Z,0.00
2018-09-20T19:34:23.650Z,0.00
2018-09-20T19:35:23.635Z,0.00
2018-09-20T19:36:23.629Z,0.00
2018-09-20T19:37:23.621Z,0.00
2018-09-20T19:38:23.629Z,0.00
2018-09-20T19:39:23.591Z,0.00
2018-09-20T19:40:23.585Z,0.00
2018-09-20T19:41:23.567Z,0.00
2018-09-20T19:42:23.561Z,0.00
2018-09-20T19:43:23.577Z,0.00
2018-09-20T19:44:23.570Z,0.00
2018-09-20T19:45:23.524Z,0.00
2018-09-20T19:46:23.528Z,0.00
2018-09-20T19:47:23.502Z,0.00
2018-09-20T19:48:23.491Z,0.00
2018-09-20T19:49:23.511Z,0.00
2018-09-20T19:50:23.467Z,0.00
2018-09-20T19:51:23.456Z,0.00
2018-09-20T19:52:23.453Z,0.00
2018-09-20T19:53:23.442Z,0.00
2018-09-20T19:54:23.427Z,0.00
2018-09-20T19:55:23.434Z,0.00
2018-09-20T19:56:23.409Z,0.00
2018-09-20T19:57:23.392Z,0.00
2018-09-20T19:58:23.373Z,0.00
2018-09-20T19:59:23.371Z,0.00
2018-09-20T20:00:23.435Z,0.00
